sensor_id;sensor_type;location;lat;lon;timestamp;pressure;altitude;pressure_sealevel;temperature;humidity
34931;BME280;21134;49.646;8.560;2023-02-12T00:00:43;102603.38;;;3.76;100.00
34931;BME280;21134;49.646;8.560;2023-02-12T00:03:11;102599.09;;;3.75;100.00
34931;BME280;21134;49.646;8.560;2023-02-12T00:05:38;102600.84;;;3.76;100.00
34931;BME280;21134;49.646;8.560;2023-02-12T00:08:06;102599.97;;;3.75;100.00
34931;BME280;21134;49.646;8.560;2023-02-12T00:10:32;102599.97;;;3.75;100.00
34931;BME280;21134;49.646;8.560;2023-02-12T00:12:59;102596.56;;;3.75;100.00
34931;BME280;21134;49.646;8.560;2023-02-12T00:15:25;102597.34;;;3.73;100.00
34931;BME280;21134;49.646;8.560;2023-02-12T00:17:52;102594.81;;;3.73;100.00
34931;BME280;21134;49.646;8.560;2023-02-12T00:20:19;102593.16;;;3.74;100.00
34931;BME280;21134;49.646;8.560;2023-02-12T00:22:46;102596.44;;;3.73;100.00
34931;BME280;21134;49.646;8.560;2023-02-12T00:25:13;102598.22;;;3.74;100.00
34931;BME280;21134;49.646;8.560;2023-02-12T00:27:39;102605.81;;;3.74;100.00
34931;BME280;21134;49.646;8.560;2023-02-12T00:30:06;102595.69;;;3.74;100.00
34931;BME280;21134;49.646;8.560;2023-02-12T00:32:33;102600.75;;;3.74;100.00
34931;BME280;21134;49.646;8.560;2023-02-12T00:35:01;102597.34;;;3.73;100.00
34931;BME280;21134;49.646;8.560;2023-02-12T00:37:29;102599.88;;;3.73;100.00
34931;BME280;21134;49.646;8.560;2023-02-12T00:39:55;102615.06;;;3.73;100.00
34931;BME280;21134;49.646;8.560;2023-02-12T00:42:22;102607.47;;;3.73;100.00
34931;BME280;21134;49.646;8.560;2023-02-12T00:44:48;102606.69;;;3.75;100.00
34931;BME280;21134;49.646;8.560;2023-02-12T00:47:15;102601.63;;;3.75;100.00
34931;BME280;21134;49.646;8.560;2023-02-12T00:49:42;102606.69;;;3.75;100.00
34931;BME280;21134;49.646;8.560;2023-02-12T00:52:08;102609.22;;;3.75;100.00
34931;BME280;21134;49.646;8.560;2023-02-12T00:54:36;102608.34;;;3.74;100.00
34931;BME280;21134;49.646;8.560;2023-02-12T00:57:03;102608.34;;;3.74;100.00
34931;BME280;21134;49.646;8.560;2023-02-12T00:59:29;102613.41;;;3.74;100.00
34931;BME280;21134;49.646;8.560;2023-02-12T01:01:56;102620.22;;;3.75;100.00
34931;BME280;21134;49.646;8.560;2023-02-12T01:04:23;102610.00;;;3.73;100.00
34931;BME280;21134;49.646;8.560;2023-02-12T01:06:49;102610.09;;;3.75;100.00
34931;BME280;21134;49.646;8.560;2023-02-12T01:09:16;102616.03;;;3.76;100.00
34931;BME280;21134;49.646;8.560;2023-02-12T01:11:44;102615.25;;;3.77;100.00
34931;BME280;21134;49.646;8.560;2023-02-12T01:14:10;102611.81;;;3.76;100.00
34931;BME280;21134;49.646;8.560;2023-02-12T01:16:37;102613.59;;;3.77;100.00
34931;BME280;21134;49.646;8.560;2023-02-12T01:19:04;102613.59;;;3.77;100.00
34931;BME280;21134;49.646;8.560;2023-02-12T01:21:32;102617.06;;;3.79;100.00
34931;BME280;21134;49.646;8.560;2023-02-12T01:24:00;102617.06;;;3.79;100.00
34931;BME280;21134;49.646;8.560;2023-02-12T01:26:28;102610.34;;;3.80;100.00
34931;BME280;21134;49.646;8.560;2023-02-12T01:28:58;102600.34;;;3.81;100.00
34931;BME280;21134;49.646;8.560;2023-02-12T01:31:27;102603.75;;;3.82;100.00
34931;BME280;21134;49.646;8.560;2023-02-12T01:33:55;102599.53;;;3.82;100.00
34931;BME280;21134;49.646;8.560;2023-02-12T01:36:22;102599.66;;;3.84;100.00
34931;BME280;21134;49.646;8.560;2023-02-12T01:38:49;102610.66;;;3.84;100.00
34931;BME280;21134;49.646;8.560;2023-02-12T01:41:18;102603.84;;;3.83;100.00
34931;BME280;21134;49.646;8.560;2023-02-12T01:46:28;102607.31;;;3.85;100.00
34931;BME280;21134;49.646;8.560;2023-02-12T01:48:54;102603.13;;;3.86;100.00
34931;BME280;21134;49.646;8.560;2023-02-12T01:51:22;102604.09;;;3.88;100.00
34931;BME280;21134;49.646;8.560;2023-02-12T01:53:52;102601.50;;;3.86;100.00
34931;BME280;21134;49.646;8.560;2023-02-12T01:56:19;102603.94;;;3.85;100.00
34931;BME280;21134;49.646;8.560;2023-02-12T01:58:50;102598.00;;;3.84;100.00
34931;BME280;21134;49.646;8.560;2023-02-12T02:01:22;102597.13;;;3.84;100.00
34931;BME280;21134;49.646;8.560;2023-02-12T02:03:53;102599.66;;;3.84;100.00
34931;BME280;21134;49.646;8.560;2023-02-12T02:06:25;102594.59;;;3.84;100.00
34931;BME280;21134;49.646;8.560;2023-02-12T02:08:53;102594.59;;;3.84;100.00
34931;BME280;21134;49.646;8.560;2023-02-12T02:11:20;102592.06;;;3.84;100.00
34931;BME280;21134;49.646;8.560;2023-02-12T02:14:19;102583.59;;;3.83;100.00
34931;BME280;21134;49.646;8.560;2023-02-12T02:17:23;102590.28;;;3.83;100.00
34931;BME280;21134;49.646;8.560;2023-02-12T02:20:15;102585.22;;;3.83;100.00
34931;BME280;21134;49.646;8.560;2023-02-12T02:22:49;102587.75;;;3.83;100.00
34931;BME280;21134;49.646;8.560;2023-02-12T02:25:37;102587.88;;;3.84;100.00
34931;BME280;21134;49.646;8.560;2023-02-12T02:28:31;102591.25;;;3.85;100.00
34931;BME280;21134;49.646;8.560;2023-02-12T02:31:03;102592.94;;;3.84;100.00
34931;BME280;21134;49.646;8.560;2023-02-12T02:33:36;102590.41;;;3.84;100.00
34931;BME280;21134;49.646;8.560;2023-02-12T02:36:14;102588.72;;;3.85;100.00
34931;BME280;21134;49.646;8.560;2023-02-12T02:38:48;102590.28;;;3.83;100.00
34931;BME280;21134;49.646;8.560;2023-02-12T02:41:19;102592.81;;;3.83;100.00
34931;BME280;21134;49.646;8.560;2023-02-12T02:43:51;102595.34;;;3.83;100.00
34931;BME280;21134;49.646;8.560;2023-02-12T02:46:23;102592.81;;;3.83;100.00
34931;BME280;21134;49.646;8.560;2023-02-12T02:48:56;102593.72;;;3.83;100.00
34931;BME280;21134;49.646;8.560;2023-02-12T02:51:26;102595.47;;;3.84;100.00
34931;BME280;21134;49.646;8.560;2023-02-12T02:53:57;102595.47;;;3.84;100.00
34931;BME280;21134;49.646;8.560;2023-02-12T02:56:26;102593.78;;;3.85;100.00
34931;BME280;21134;49.646;8.560;2023-02-12T02:58:57;102596.31;;;3.85;100.00
34931;BME280;21134;49.646;8.560;2023-02-12T03:01:28;102594.78;;;3.87;100.00
34931;BME280;21134;49.646;8.560;2023-02-12T03:03:59;102595.66;;;3.87;100.00
34931;BME280;21134;49.646;8.560;2023-02-12T03:06:32;102595.66;;;3.87;100.00
34931;BME280;21134;49.646;8.560;2023-02-12T03:09:08;102590.66;;;3.89;100.00
34931;BME280;21134;49.646;8.560;2023-02-12T03:11:38;102595.72;;;3.89;100.00
34931;BME280;21134;49.646;8.560;2023-02-12T03:14:10;102591.56;;;3.89;100.00
34931;BME280;21134;49.646;8.560;2023-02-12T03:16:40;102594.09;;;3.89;100.00
34931;BME280;21134;49.646;8.560;2023-02-12T03:19:12;102598.34;;;3.90;100.00
34931;BME280;21134;49.646;8.560;2023-02-12T03:21:42;102596.69;;;3.91;100.00
34931;BME280;21134;49.646;8.560;2023-02-12T03:24:15;102592.50;;;3.91;100.00
34931;BME280;21134;49.646;8.560;2023-02-12T03:26:48;102594.97;;;3.90;100.00
34931;BME280;21134;49.646;8.560;2023-02-12T03:29:16;102589.09;;;3.91;100.00
34931;BME280;21134;49.646;8.560;2023-02-12T03:31:56;102592.44;;;3.90;100.00
34931;BME280;21134;49.646;8.560;2023-02-12T03:34:29;102594.97;;;3.90;100.00
34931;BME280;21134;49.646;8.560;2023-02-12T03:37:02;102594.16;;;3.91;100.00
34931;BME280;21134;49.646;8.560;2023-02-12T03:39:36;102593.38;;;3.92;100.00
34931;BME280;21134;49.646;8.560;2023-02-12T03:42:07;102595.91;;;3.92;100.00
34931;BME280;21134;49.646;8.560;2023-02-12T03:44:44;102595.91;;;3.92;100.00
34931;BME280;21134;49.646;8.560;2023-02-12T03:47:20;102601.88;;;3.92;100.00
34931;BME280;21134;49.646;8.560;2023-02-12T03:49:54;102591.75;;;3.92;100.00
34931;BME280;21134;49.646;8.560;2023-02-12T03:52:25;102597.69;;;3.93;100.00
34931;BME280;21134;49.646;8.560;2023-02-12T03:54:51;102596.00;;;3.93;100.00
34931;BME280;21134;49.646;8.560;2023-02-12T03:57:20;102594.28;;;3.92;100.00
34931;BME280;21134;49.646;8.560;2023-02-12T03:59:48;102594.28;;;3.92;100.00
34931;BME280;21134;49.646;8.560;2023-02-12T04:02:17;102598.53;;;3.93;100.00
34931;BME280;21134;49.646;8.560;2023-02-12T04:04:45;102594.28;;;3.92;100.00
34931;BME280;21134;49.646;8.560;2023-02-12T04:07:12;102600.09;;;3.91;100.00
34931;BME280;21134;49.646;8.560;2023-02-12T04:09:39;102595.91;;;3.92;100.00
34931;BME280;21134;49.646;8.560;2023-02-12T04:12:19;102600.97;;;3.92;100.00
34931;BME280;21134;49.646;8.560;2023-02-12T04:14:51;102599.34;;;3.92;100.00
34931;BME280;21134;49.646;8.560;2023-02-12T04:17:25;102605.28;;;3.93;100.00
34931;BME280;21134;49.646;8.560;2023-02-12T04:20:04;102609.47;;;3.92;100.00
34931;BME280;21134;49.646;8.560;2023-02-12T04:22:45;102607.81;;;3.93;100.00
34931;BME280;21134;49.646;8.560;2023-02-12T04:25:20;102606.94;;;3.92;100.00
34931;BME280;21134;49.646;8.560;2023-02-12T04:27:56;102615.41;;;3.93;100.00
34931;BME280;21134;49.646;8.560;2023-02-12T04:30:27;102610.22;;;3.91;100.00
34931;BME280;21134;49.646;8.560;2023-02-12T04:33:01;102609.47;;;3.92;100.00
34931;BME280;21134;49.646;8.560;2023-02-12T04:35:32;102616.16;;;3.92;100.00
34931;BME280;21134;49.646;8.560;2023-02-12T04:38:06;102612.00;;;3.92;100.00
34931;BME280;21134;49.646;8.560;2023-02-12T04:40:37;102613.75;;;3.93;100.00
34931;BME280;21134;49.646;8.560;2023-02-12T04:43:04;102612.00;;;3.92;100.00
34931;BME280;21134;49.646;8.560;2023-02-12T04:45:33;102620.47;;;3.93;100.00
34931;BME280;21134;49.646;8.560;2023-02-12T04:48:02;102622.13;;;3.92;100.00
34931;BME280;21134;49.646;8.560;2023-02-12T04:50:39;102620.47;;;3.93;100.00
34931;BME280;21134;49.646;8.560;2023-02-12T04:53:06;102620.47;;;3.93;100.00
34931;BME280;21134;49.646;8.560;2023-02-12T04:55:33;102617.94;;;3.93;100.00
34931;BME280;21134;49.646;8.560;2023-02-12T04:58:00;102624.66;;;3.92;100.00
34931;BME280;21134;49.646;8.560;2023-02-12T05:00:26;102620.34;;;3.91;100.00
34931;BME280;21134;49.646;8.560;2023-02-12T05:02:53;102616.09;;;3.90;100.00
34931;BME280;21134;49.646;8.560;2023-02-12T05:05:21;102614.44;;;3.91;100.00
34931;BME280;21134;49.646;8.560;2023-02-12T05:07:48;102606.81;;;3.91;100.00
34931;BME280;21134;49.646;8.560;2023-02-12T05:10:14;102606.81;;;3.91;100.00
34931;BME280;21134;49.646;8.560;2023-02-12T05:12:41;102608.56;;;3.92;100.00
34931;BME280;21134;49.646;8.560;2023-02-12T05:15:08;102606.94;;;3.92;100.00
34931;BME280;21134;49.646;8.560;2023-02-12T05:17:35;102608.56;;;3.92;100.00
34931;BME280;21134;49.646;8.560;2023-02-12T05:20:01;102606.03;;;3.92;100.00
34931;BME280;21134;49.646;8.560;2023-02-12T05:22:29;102607.81;;;3.93;100.00
34931;BME280;21134;49.646;8.560;2023-02-12T05:24:56;102607.81;;;3.93;100.00
34931;BME280;21134;49.646;8.560;2023-02-12T05:27:22;102600.09;;;3.91;100.00
34931;BME280;21134;49.646;8.560;2023-02-12T05:29:49;102603.44;;;3.90;100.00
34931;BME280;21134;49.646;8.560;2023-02-12T05:32:15;102600.78;;;3.89;100.00
34931;BME280;21134;49.646;8.560;2023-02-12T05:34:42;102610.84;;;3.87;100.00
34931;BME280;21134;49.646;8.560;2023-02-12T05:37:08;102608.31;;;3.87;100.00
34931;BME280;21134;49.646;8.560;2023-02-12T05:39:36;102606.56;;;3.86;100.00
34931;BME280;21134;49.646;8.560;2023-02-12T05:42:03;102601.50;;;3.86;100.00
34931;BME280;21134;49.646;8.560;2023-02-12T05:44:29;102610.03;;;3.88;100.00
34931;BME280;21134;49.646;8.560;2023-02-12T05:46:56;102616.88;;;3.89;100.00
34931;BME280;21134;49.646;8.560;2023-02-12T05:49:22;102610.91;;;3.89;100.00
34931;BME280;21134;49.646;8.560;2023-02-12T05:51:49;102607.50;;;3.88;100.00
34931;BME280;21134;49.646;8.560;2023-02-12T05:54:15;102614.34;;;3.89;100.00
34931;BME280;21134;49.646;8.560;2023-02-12T05:56:45;102609.28;;;3.89;100.00
34931;BME280;21134;49.646;8.560;2023-02-12T05:59:13;102602.56;;;3.90;100.00
34931;BME280;21134;49.646;8.560;2023-02-12T06:01:42;102608.50;;;3.90;100.00
34931;BME280;21134;49.646;8.560;2023-02-12T06:04:12;102611.91;;;3.91;100.00
34931;BME280;21134;49.646;8.560;2023-02-12T06:06:39;102608.38;;;3.89;100.00
34931;BME280;21134;49.646;8.560;2023-02-12T06:09:07;102610.03;;;3.88;100.00
34931;BME280;21134;49.646;8.560;2023-02-12T06:11:34;102610.84;;;3.87;100.00
34931;BME280;21134;49.646;8.560;2023-02-12T06:14:02;102614.91;;;3.85;100.00
34931;BME280;21134;49.646;8.560;2023-02-12T06:16:29;102617.44;;;3.85;100.00
34931;BME280;21134;49.646;8.560;2023-02-12T06:18:56;102608.00;;;3.83;100.00
34931;BME280;21134;49.646;8.560;2023-02-12T06:21:25;102621.56;;;3.83;100.00
34931;BME280;21134;49.646;8.560;2023-02-12T06:23:52;102614.72;;;3.82;100.00
34931;BME280;21134;49.646;8.560;2023-02-12T06:26:19;102614.72;;;3.82;100.00
34931;BME280;21134;49.646;8.560;2023-02-12T06:28:46;102614.72;;;3.82;100.00
34931;BME280;21134;49.646;8.560;2023-02-12T06:31:22;102620.59;;;3.81;100.00
34931;BME280;21134;49.646;8.560;2023-02-12T06:33:49;102619.81;;;3.82;100.00
34931;BME280;21134;49.646;8.560;2023-02-12T06:36:16;102625.66;;;3.81;100.00
34931;BME280;21134;49.646;8.560;2023-02-12T06:38:43;102621.47;;;3.82;100.00
34931;BME280;21134;49.646;8.560;2023-02-12T06:41:09;102623.13;;;3.81;100.00
34931;BME280;21134;49.646;8.560;2023-02-12T06:43:36;102624.00;;;3.82;100.00
34931;BME280;21134;49.646;8.560;2023-02-12T06:46:03;102635.88;;;3.83;100.00
34931;BME280;21134;49.646;8.560;2023-02-12T06:48:32;102635.00;;;3.82;100.00
34931;BME280;21134;49.646;8.560;2023-02-12T06:51:04;102637.63;;;3.84;100.00
34931;BME280;21134;49.646;8.560;2023-02-12T06:53:32;102636.75;;;3.83;100.00
34931;BME280;21134;49.646;8.560;2023-02-12T06:55:59;102644.34;;;3.83;100.00
34931;BME280;21134;49.646;8.560;2023-02-12T06:58:26;102640.16;;;3.84;100.00
34931;BME280;21134;49.646;8.560;2023-02-12T07:00:52;102650.28;;;3.84;100.00
34931;BME280;21134;49.646;8.560;2023-02-12T07:03:19;102647.75;;;3.84;100.00
34931;BME280;21134;49.646;8.560;2023-02-12T07:05:47;102652.91;;;3.85;100.00
34931;BME280;21134;49.646;8.560;2023-02-12T07:08:13;102656.41;;;3.87;100.00
34931;BME280;21134;49.646;8.560;2023-02-12T07:10:40;102664.09;;;3.89;100.00
34931;BME280;21134;49.646;8.560;2023-02-12T07:13:06;102664.28;;;3.92;100.00
34931;BME280;21134;49.646;8.560;2023-02-12T07:15:33;102670.31;;;3.94;100.00
34931;BME280;21134;49.646;8.560;2023-02-12T07:18:03;102671.19;;;3.94;100.00
34931;BME280;21134;49.646;8.560;2023-02-12T07:20:30;102673.03;;;3.97;100.00
34931;BME280;21134;49.646;8.560;2023-02-12T07:22:57;102671.50;;;3.99;100.00
34931;BME280;21134;49.646;8.560;2023-02-12T07:25:24;102671.56;;;4.01;100.00
34931;BME280;21134;49.646;8.560;2023-02-12T07:27:50;102677.63;;;4.03;100.00
34931;BME280;21134;49.646;8.560;2023-02-12T07:30:17;102673.41;;;4.03;100.00
34931;BME280;21134;49.646;8.560;2023-02-12T07:32:44;102676.94;;;4.05;100.00
34931;BME280;21134;49.646;8.560;2023-02-12T07:35:10;102680.34;;;4.06;100.00
34931;BME280;21134;49.646;8.560;2023-02-12T07:37:37;102671.25;;;4.09;100.00
34931;BME280;21134;49.646;8.560;2023-02-12T07:40:06;102673.78;;;4.09;100.00
34931;BME280;21134;49.646;8.560;2023-02-12T07:42:33;102689.06;;;4.11;100.00
34931;BME280;21134;49.646;8.560;2023-02-12T07:45:00;102682.44;;;4.13;100.00
34931;BME280;21134;49.646;8.560;2023-02-12T07:47:26;102680.78;;;4.13;100.00
34931;BME280;21134;49.646;8.560;2023-02-12T07:49:52;102670.84;;;4.16;100.00
34931;BME280;21134;49.646;8.560;2023-02-12T07:52:19;102671.03;;;4.19;100.00
34931;BME280;21134;49.646;8.560;2023-02-12T07:54:46;102671.28;;;4.24;100.00
34931;BME280;21134;49.646;8.560;2023-02-12T07:57:14;102681.59;;;4.27;100.00
34931;BME280;21134;49.646;8.560;2023-02-12T07:59:40;102679.25;;;4.30;100.00
34931;BME280;21134;49.646;8.560;2023-02-12T08:02:08;102674.38;;;4.33;100.00
34931;BME280;21134;49.646;8.560;2023-02-12T08:04:35;102683.81;;;4.36;100.00
34931;BME280;21134;49.646;8.560;2023-02-12T08:07:01;102688.41;;;4.41;100.00
34931;BME280;21134;49.646;8.560;2023-02-12T08:09:28;102685.94;;;4.43;100.00
34931;BME280;21134;49.646;8.560;2023-02-12T08:11:55;102687.78;;;4.46;100.00
34931;BME280;21134;49.646;8.560;2023-02-12T08:14:25;102693.84;;;4.48;100.00
34931;BME280;21134;49.646;8.560;2023-02-12T08:16:52;102688.84;;;4.49;100.00
34931;BME280;21134;49.646;8.560;2023-02-12T08:19:19;102692.44;;;4.53;100.00
34931;BME280;21134;49.646;8.560;2023-02-12T08:21:48;102690.00;;;4.54;100.00
34931;BME280;21134;49.646;8.560;2023-02-12T08:24:15;102695.25;;;4.57;100.00
34931;BME280;21134;49.646;8.560;2023-02-12T08:26:41;102691.22;;;4.61;100.00
34931;BME280;21134;49.646;8.560;2023-02-12T08:29:10;102699.72;;;4.61;100.00
34931;BME280;21134;49.646;8.560;2023-02-12T08:31:39;102696.38;;;4.62;100.00
34931;BME280;21134;49.646;8.560;2023-02-12T08:34:09;102700.94;;;4.68;100.00
34931;BME280;21134;49.646;8.560;2023-02-12T08:36:40;102702.72;;;4.69;100.00
34931;BME280;21134;49.646;8.560;2023-02-12T08:39:08;102702.09;;;4.73;100.00
34931;BME280;21134;49.646;8.560;2023-02-12T08:41:35;102700.59;;;4.77;100.00
34931;BME280;21134;49.646;8.560;2023-02-12T08:44:03;102698.25;;;4.80;100.00
34931;BME280;21134;49.646;8.560;2023-02-12T08:46:32;102707.09;;;4.86;100.00
34931;BME280;21134;49.646;8.560;2023-02-12T08:49:01;102704.91;;;4.93;100.00
34931;BME280;21134;49.646;8.560;2023-02-12T08:51:29;102708.56;;;4.98;100.00
34931;BME280;21134;49.646;8.560;2023-02-12T08:53:58;102710.53;;;5.02;100.00
34931;BME280;21134;49.646;8.560;2023-02-12T08:56:26;102710.75;;;5.06;100.00
34931;BME280;21134;49.646;8.560;2023-02-12T08:58:55;102705.00;;;5.09;100.00
34931;BME280;21134;49.646;8.560;2023-02-12T09:01:23;102712.44;;;5.21;100.00
34931;BME280;21134;49.646;8.560;2023-02-12T09:03:50;102707.53;;;5.24;100.00
34931;BME280;21134;49.646;8.560;2023-02-12T09:06:21;102715.91;;;5.23;100.00
34931;BME280;21134;49.646;8.560;2023-02-12T09:08:50;102709.34;;;5.26;100.00
34931;BME280;21134;49.646;8.560;2023-02-12T09:11:18;102715.84;;;5.36;100.00
34931;BME280;21134;49.646;8.560;2023-02-12T09:13:46;102716.00;;;5.39;100.00
34931;BME280;21134;49.646;8.560;2023-02-12T09:16:13;102721.00;;;5.38;100.00
34931;BME280;21134;49.646;8.560;2023-02-12T09:18:39;102726.25;;;5.41;100.00
34931;BME280;21134;49.646;8.560;2023-02-12T09:21:09;102729.94;;;5.46;100.00
34931;BME280;21134;49.646;8.560;2023-02-12T09:23:37;102718.28;;;5.49;100.00
34931;BME280;21134;49.646;8.560;2023-02-12T09:26:05;102726.06;;;5.52;100.00
34931;BME280;21134;49.646;8.560;2023-02-12T09:28:33;102716.25;;;5.58;100.00
34931;BME280;21134;49.646;8.560;2023-02-12T09:31:03;102716.56;;;5.65;100.00
34931;BME280;21134;49.646;8.560;2023-02-12T09:33:30;102718.13;;;5.77;100.00
34931;BME280;21134;49.646;8.560;2023-02-12T09:36:00;102718.91;;;5.76;100.00
34931;BME280;21134;49.646;8.560;2023-02-12T09:38:26;102716.31;;;5.75;100.00
34931;BME280;21134;49.646;8.560;2023-02-12T09:41:08;102714.63;;;5.75;100.00
34931;BME280;21134;49.646;8.560;2023-02-12T09:43:40;102715.75;;;5.80;100.00
34931;BME280;21134;49.646;8.560;2023-02-12T09:46:15;102717.50;;;5.81;100.00
34931;BME280;21134;49.646;8.560;2023-02-12T09:48:53;102722.94;;;5.88;100.00
34931;BME280;21134;49.646;8.560;2023-02-12T09:51:22;102727.81;;;5.99;99.40
34931;BME280;21134;49.646;8.560;2023-02-12T09:54:00;102733.06;;;6.02;99.38
34931;BME280;21134;49.646;8.560;2023-02-12T09:56:29;102729.81;;;6.05;99.69
34931;BME280;21134;49.646;8.560;2023-02-12T09:58:58;102727.97;;;6.02;99.92
34931;BME280;21134;49.646;8.560;2023-02-12T10:01:27;102728.47;;;6.12;99.15
34931;BME280;21134;49.646;8.560;2023-02-12T10:03:54;102733.81;;;6.16;98.78
34931;BME280;21134;49.646;8.560;2023-02-12T10:06:24;102733.88;;;6.18;98.71
34931;BME280;21134;49.646;8.560;2023-02-12T10:09:08;102726.41;;;6.21;99.20
34931;BME280;21134;49.646;8.560;2023-02-12T10:12:02;102738.66;;;6.28;99.84
34931;BME280;21134;49.646;8.560;2023-02-12T10:14:56;102723.97;;;6.39;98.97
34931;BME280;21134;49.646;8.560;2023-02-12T10:17:34;102719.28;;;6.46;98.29
34931;BME280;21134;49.646;8.560;2023-02-12T10:20:14;102717.53;;;6.45;98.21
34931;BME280;21134;49.646;8.560;2023-02-12T10:22:48;102723.25;;;6.58;97.68
34931;BME280;21134;49.646;8.560;2023-02-12T10:25:25;102720.72;;;6.58;97.64
34931;BME280;21134;49.646;8.560;2023-02-12T10:27:59;102719.34;;;6.64;97.19
34931;BME280;21134;49.646;8.560;2023-02-12T10:30:33;102715.13;;;6.65;96.64
34931;BME280;21134;49.646;8.560;2023-02-12T10:33:03;102714.00;;;6.76;96.64
34931;BME280;21134;49.646;8.560;2023-02-12T10:35:31;102713.53;;;6.83;95.59
34931;BME280;21134;49.646;8.560;2023-02-12T10:38:01;102703.19;;;6.80;96.34
34931;BME280;21134;49.646;8.560;2023-02-12T10:40:31;102706.81;;;6.85;96.75
34931;BME280;21134;49.646;8.560;2023-02-12T10:43:01;102700.63;;;6.96;97.19
34931;BME280;21134;49.646;8.560;2023-02-12T10:45:29;102702.00;;;7.08;95.61
34931;BME280;21134;49.646;8.560;2023-02-12T10:48:05;102701.00;;;7.22;96.44
34931;BME280;21134;49.646;8.560;2023-02-12T10:50:40;102699.69;;;7.30;95.02
34931;BME280;21134;49.646;8.560;2023-02-12T10:53:16;102691.06;;;7.44;95.21
34931;BME280;21134;49.646;8.560;2023-02-12T10:55:43;102694.09;;;7.55;95.49
34931;BME280;21134;49.646;8.560;2023-02-12T10:58:19;102693.56;;;7.62;93.16
34931;BME280;21134;49.646;8.560;2023-02-12T11:00:55;102687.75;;;7.65;94.20
34931;BME280;21134;49.646;8.560;2023-02-12T11:03:29;102681.25;;;7.72;94.21
34931;BME280;21134;49.646;8.560;2023-02-12T11:06:10;102680.56;;;7.93;93.19
34931;BME280;21134;49.646;8.560;2023-02-12T11:08:37;102679.84;;;7.96;92.68
34931;BME280;21134;49.646;8.560;2023-02-12T11:11:07;102674.19;;;8.03;92.83
34931;BME280;21134;49.646;8.560;2023-02-12T11:13:38;102666.56;;;8.03;92.60
34931;BME280;21134;49.646;8.560;2023-02-12T11:16:05;102659.03;;;8.26;91.27
34931;BME280;21134;49.646;8.560;2023-02-12T11:18:33;102657.50;;;8.29;90.90
34931;BME280;21134;49.646;8.560;2023-02-12T11:21:04;102664.34;;;8.30;90.15
34931;BME280;21134;49.646;8.560;2023-02-12T11:23:33;102665.22;;;8.31;90.92
34931;BME280;21134;49.646;8.560;2023-02-12T11:26:01;102662.59;;;8.29;91.18
34931;BME280;21134;49.646;8.560;2023-02-12T11:28:30;102652.53;;;8.32;91.34
34931;BME280;21134;49.646;8.560;2023-02-12T11:31:00;102653.59;;;8.37;90.68
34931;BME280;21134;49.646;8.560;2023-02-12T11:33:29;102649.53;;;8.41;91.17
34931;BME280;21134;49.646;8.560;2023-02-12T11:35:58;102641.16;;;8.44;90.22
34931;BME280;21134;49.646;8.560;2023-02-12T11:38:30;102639.53;;;8.46;90.55
34931;BME280;21134;49.646;8.560;2023-02-12T11:41:01;102638.00;;;8.49;90.13
34931;BME280;21134;49.646;8.560;2023-02-12T11:43:29;102632.19;;;8.53;89.60
34931;BME280;21134;49.646;8.560;2023-02-12T11:45:59;102635.00;;;8.59;89.27
34931;BME280;21134;49.646;8.560;2023-02-12T11:48:29;102636.00;;;8.63;90.19
34931;BME280;21134;49.646;8.560;2023-02-12T11:51:00;102634.31;;;8.64;90.39
34931;BME280;21134;49.646;8.560;2023-02-12T11:53:30;102635.97;;;8.61;90.36
34931;BME280;21134;49.646;8.560;2023-02-12T11:55:59;102633.63;;;8.68;89.70
34931;BME280;21134;49.646;8.560;2023-02-12T11:58:28;102637.94;;;8.69;89.20
34931;BME280;21134;49.646;8.560;2023-02-12T12:01:02;102628.72;;;8.72;89.69
34931;BME280;21134;49.646;8.560;2023-02-12T12:03:34;102630.53;;;8.75;90.00
34931;BME280;21134;49.646;8.560;2023-02-12T12:06:06;102619.78;;;8.82;89.04
34931;BME280;21134;49.646;8.560;2023-02-12T12:08:39;102630.03;;;8.83;88.85
34931;BME280;21134;49.646;8.560;2023-02-12T12:11:11;102622.44;;;8.85;89.30
34931;BME280;21134;49.646;8.560;2023-02-12T12:13:43;102617.47;;;8.88;88.64
34931;BME280;21134;49.646;8.560;2023-02-12T12:16:18;102611.88;;;8.97;88.50
34931;BME280;21134;49.646;8.560;2023-02-12T12:19:05;102611.47;;;9.08;87.05
34931;BME280;21134;49.646;8.560;2023-02-12T12:21:59;102612.69;;;9.18;86.55
34931;BME280;21134;49.646;8.560;2023-02-12T12:24:36;102612.56;;;9.15;86.52
34931;BME280;21134;49.646;8.560;2023-02-12T12:27:11;102607.78;;;9.23;86.42
34931;BME280;21134;49.646;8.560;2023-02-12T12:30:04;102609.63;;;9.27;86.42
34931;BME280;21134;49.646;8.560;2023-02-12T12:32:35;102611.59;;;9.34;86.23
34931;BME280;21134;49.646;8.560;2023-02-12T12:35:08;102605.81;;;9.38;86.22
34931;BME280;21134;49.646;8.560;2023-02-12T12:37:37;102599.28;;;9.46;84.80
34931;BME280;21134;49.646;8.560;2023-02-12T12:40:31;102601.91;;;9.48;84.50
34931;BME280;21134;49.646;8.560;2023-02-12T12:43:07;102594.81;;;9.41;84.24
34931;BME280;21134;49.646;8.560;2023-02-12T12:48:51;102585.50;;;9.41;85.00
34931;BME280;21134;49.646;8.560;2023-02-12T12:51:37;102587.00;;;9.36;83.86
34931;BME280;21134;49.646;8.560;2023-02-12T12:54:16;102585.56;;;9.44;84.20
34931;BME280;21134;49.646;8.560;2023-02-12T12:56:57;102578.03;;;9.47;84.63
34931;BME280;21134;49.646;8.560;2023-02-12T12:59:40;102572.22;;;9.51;84.56
34931;BME280;21134;49.646;8.560;2023-02-12T13:02:39;102572.47;;;9.58;84.38
34931;BME280;21134;49.646;8.560;2023-02-12T13:05:28;102566.53;;;9.59;84.27
34931;BME280;21134;49.646;8.560;2023-02-12T13:08:02;102573.47;;;9.63;84.21
34931;BME280;21134;49.646;8.560;2023-02-12T13:10:39;102577.13;;;9.69;84.06
34931;BME280;21134;49.646;8.560;2023-02-12T13:13:19;102578.09;;;9.73;84.30
34931;BME280;21134;49.646;8.560;2023-02-12T13:15:55;102565.31;;;9.73;84.28